sensor_id;sensor_type;location;lat;lon;timestamp;P1;durP1;ratioP1;P2;durP2;ratioP2
44516;SDS011;30223;17.182;-96.766;2023-03-13T00:01:17;4.55;;;2.88;;
44516;SDS011;30223;17.182;-96.766;2023-03-13T00:03:50;5.07;;;3.10;;
44516;SDS011;30223;17.182;-96.766;2023-03-13T00:06:19;3.85;;;2.58;;
44516;SDS011;30223;17.182;-96.766;2023-03-13T00:08:50;4.00;;;2.80;;
44516;SDS011;30223;17.182;-96.766;2023-03-13T00:11:17;7.18;;;2.58;;
44516;SDS011;30223;17.182;-96.766;2023-03-13T00:13:44;6.10;;;3.58;;
44516;SDS011;30223;17.182;-96.766;2023-03-13T00:16:11;8.57;;;2.83;;
44516;SDS011;30223;17.182;-96.766;2023-03-13T00:18:43;4.18;;;2.80;;
44516;SDS011;30223;17.182;-96.766;2023-03-13T00:21:11;2.88;;;2.42;;
44516;SDS011;30223;17.182;-96.766;2023-03-13T00:23:38;5.30;;;2.55;;
44516;SDS011;30223;17.182;-96.766;2023-03-13T00:26:06;3.45;;;2.65;;
44516;SDS011;30223;17.182;-96.766;2023-03-13T00:31:03;3.70;;;1.83;;
44516;SDS011;30223;17.182;-96.766;2023-03-13T00:33:32;4.80;;;2.58;;
44516;SDS011;30223;17.182;-96.766;2023-03-13T00:36:03;3.80;;;2.97;;
44516;SDS011;30223;17.182;-96.766;2023-03-13T00:38:32;3.50;;;2.00;;
44516;SDS011;30223;17.182;-96.766;2023-03-13T00:43:26;4.20;;;2.35;;
44516;SDS011;30223;17.182;-96.766;2023-03-13T00:45:53;5.95;;;2.50;;
44516;SDS011;30223;17.182;-96.766;2023-03-13T00:48:20;5.43;;;2.78;;
44516;SDS011;30223;17.182;-96.766;2023-03-13T00:50:47;8.52;;;3.78;;
44516;SDS011;30223;17.182;-96.766;2023-03-13T00:53:14;6.00;;;2.58;;
44516;SDS011;30223;17.182;-96.766;2023-03-13T00:55:51;2.83;;;2.00;;
44516;SDS011;30223;17.182;-96.766;2023-03-13T00:58:18;5.43;;;3.05;;
44516;SDS011;30223;17.182;-96.766;2023-03-13T01:00:45;6.50;;;2.08;;
44516;SDS011;30223;17.182;-96.766;2023-03-13T01:03:11;3.10;;;2.40;;
44516;SDS011;30223;17.182;-96.766;2023-03-13T01:05:38;7.07;;;2.58;;
44516;SDS011;30223;17.182;-96.766;2023-03-13T01:08:05;3.38;;;2.33;;
44516;SDS011;30223;17.182;-96.766;2023-03-13T01:10:31;6.28;;;3.15;;
44516;SDS011;30223;17.182;-96.766;2023-03-13T01:12:58;5.25;;;2.38;;
44516;SDS011;30223;17.182;-96.766;2023-03-13T01:15:25;3.88;;;2.33;;
44516;SDS011;30223;17.182;-96.766;2023-03-13T01:17:52;3.60;;;2.42;;
44516;SDS011;30223;17.182;-96.766;2023-03-13T01:20:19;5.55;;;2.50;;
44516;SDS011;30223;17.182;-96.766;2023-03-13T01:22:46;5.85;;;2.22;;
44516;SDS011;30223;17.182;-96.766;2023-03-13T01:25:12;3.10;;;2.40;;
44516;SDS011;30223;17.182;-96.766;2023-03-13T01:27:39;3.55;;;2.10;;
44516;SDS011;30223;17.182;-96.766;2023-03-13T01:30:06;4.18;;;2.22;;
44516;SDS011;30223;17.182;-96.766;2023-03-13T01:32:33;2.85;;;2.50;;
44516;SDS011;30223;17.182;-96.766;2023-03-13T01:35:00;3.55;;;2.53;;
44516;SDS011;30223;17.182;-96.766;2023-03-13T01:37:27;2.95;;;2.42;;
44516;SDS011;30223;17.182;-96.766;2023-03-13T01:39:53;4.63;;;2.33;;
44516;SDS011;30223;17.182;-96.766;2023-03-13T01:42:20;10.10;;;2.53;;
44516;SDS011;30223;17.182;-96.766;2023-03-13T01:44:54;3.78;;;2.83;;
44516;SDS011;30223;17.182;-96.766;2023-03-13T01:47:22;3.75;;;2.95;;
44516;SDS011;30223;17.182;-96.766;2023-03-13T01:49:49;6.65;;;3.40;;
44516;SDS011;30223;17.182;-96.766;2023-03-13T01:52:23;6.28;;;3.30;;
44516;SDS011;30223;17.182;-96.766;2023-03-13T01:54:53;4.63;;;3.28;;
44516;SDS011;30223;17.182;-96.766;2023-03-13T01:57:45;12.15;;;4.38;;
44516;SDS011;30223;17.182;-96.766;2023-03-13T02:00:16;4.38;;;3.55;;
44516;SDS011;30223;17.182;-96.766;2023-03-13T02:02:50;4.68;;;3.58;;
44516;SDS011;30223;17.182;-96.766;2023-03-13T02:05:21;6.20;;;3.70;;
44516;SDS011;30223;17.182;-96.766;2023-03-13T02:07:53;4.72;;;3.22;;
44516;SDS011;30223;17.182;-96.766;2023-03-13T02:10:28;4.15;;;3.72;;
44516;SDS011;30223;17.182;-96.766;2023-03-13T02:12:59;4.10;;;3.53;;
44516;SDS011;30223;17.182;-96.766;2023-03-13T02:15:27;5.70;;;3.03;;
44516;SDS011;30223;17.182;-96.766;2023-03-13T02:17:54;5.85;;;3.70;;
44516;SDS011;30223;17.182;-96.766;2023-03-13T02:20:21;4.97;;;3.80;;
44516;SDS011;30223;17.182;-96.766;2023-03-13T02:25:39;5.82;;;3.63;;
44516;SDS011;30223;17.182;-96.766;2023-03-13T02:28:12;4.80;;;3.65;;
44516;SDS011;30223;17.182;-96.766;2023-03-13T02:30:54;5.40;;;3.63;;
44516;SDS011;30223;17.182;-96.766;2023-03-13T02:33:25;5.55;;;3.88;;
44516;SDS011;30223;17.182;-96.766;2023-03-13T02:35:56;3.85;;;3.45;;
44516;SDS011;30223;17.182;-96.766;2023-03-13T02:38:24;7.32;;;2.97;;
44516;SDS011;30223;17.182;-96.766;2023-03-13T02:40:53;6.85;;;3.17;;
44516;SDS011;30223;17.182;-96.766;2023-03-13T02:43:32;4.82;;;2.90;;
44516;SDS011;30223;17.182;-96.766;2023-03-13T02:48:31;4.18;;;3.55;;
44516;SDS011;30223;17.182;-96.766;2023-03-13T02:53:54;3.90;;;2.60;;
44516;SDS011;30223;17.182;-96.766;2023-03-13T02:56:26;3.42;;;2.83;;
44516;SDS011;30223;17.182;-96.766;2023-03-13T03:01:20;7.63;;;3.42;;
44516;SDS011;30223;17.182;-96.766;2023-03-13T03:03:47;3.90;;;2.67;;
44516;SDS011;30223;17.182;-96.766;2023-03-13T03:06:14;3.85;;;3.20;;
44516;SDS011;30223;17.182;-96.766;2023-03-13T03:08:40;3.60;;;2.55;;
44516;SDS011;30223;17.182;-96.766;2023-03-13T03:11:08;5.05;;;3.45;;
44516;SDS011;30223;17.182;-96.766;2023-03-13T03:13:35;4.65;;;2.67;;
44516;SDS011;30223;17.182;-96.766;2023-03-13T03:16:06;3.35;;;2.97;;
44516;SDS011;30223;17.182;-96.766;2023-03-13T03:18:34;4.63;;;3.55;;
44516;SDS011;30223;17.182;-96.766;2023-03-13T03:21:01;6.68;;;3.25;;
44516;SDS011;30223;17.182;-96.766;2023-03-13T03:23:33;3.80;;;3.25;;
44516;SDS011;30223;17.182;-96.766;2023-03-13T03:26:00;3.88;;;3.00;;
44516;SDS011;30223;17.182;-96.766;2023-03-13T03:28:28;5.77;;;3.80;;
44516;SDS011;30223;17.182;-96.766;2023-03-13T03:30:55;7.75;;;3.63;;
44516;SDS011;30223;17.182;-96.766;2023-03-13T03:33:22;8.65;;;4.70;;
44516;SDS011;30223;17.182;-96.766;2023-03-13T03:35:49;9.05;;;4.32;;
44516;SDS011;30223;17.182;-96.766;2023-03-13T03:38:16;6.75;;;4.32;;
44516;SDS011;30223;17.182;-96.766;2023-03-13T03:40:43;3.83;;;3.47;;
44516;SDS011;30223;17.182;-96.766;2023-03-13T03:43:09;9.32;;;4.05;;
44516;SDS011;30223;17.182;-96.766;2023-03-13T03:45:36;11.75;;;5.25;;
44516;SDS011;30223;17.182;-96.766;2023-03-13T03:48:02;11.52;;;5.93;;
44516;SDS011;30223;17.182;-96.766;2023-03-13T03:50:29;11.43;;;5.20;;
44516;SDS011;30223;17.182;-96.766;2023-03-13T03:52:56;12.90;;;6.30;;
44516;SDS011;30223;17.182;-96.766;2023-03-13T03:55:23;10.60;;;5.65;;
44516;SDS011;30223;17.182;-96.766;2023-03-13T03:57:50;12.88;;;5.93;;
44516;SDS011;30223;17.182;-96.766;2023-03-13T04:00:17;7.95;;;5.25;;
44516;SDS011;30223;17.182;-96.766;2023-03-13T04:02:44;14.40;;;6.18;;
44516;SDS011;30223;17.182;-96.766;2023-03-13T04:05:11;12.82;;;5.55;;
44516;SDS011;30223;17.182;-96.766;2023-03-13T04:07:38;9.68;;;5.13;;
44516;SDS011;30223;17.182;-96.766;2023-03-13T04:10:04;9.65;;;5.93;;
44516;SDS011;30223;17.182;-96.766;2023-03-13T04:12:32;7.63;;;4.82;;
44516;SDS011;30223;17.182;-96.766;2023-03-13T04:14:58;14.10;;;6.38;;
44516;SDS011;30223;17.182;-96.766;2023-03-13T04:17:25;6.82;;;4.63;;
44516;SDS011;30223;17.182;-96.766;2023-03-13T04:19:52;11.38;;;5.47;;
44516;SDS011;30223;17.182;-96.766;2023-03-13T04:22:18;14.00;;;4.90;;
44516;SDS011;30223;17.182;-96.766;2023-03-13T04:24:45;6.25;;;5.28;;
44516;SDS011;30223;17.182;-96.766;2023-03-13T04:27:12;7.80;;;4.75;;
44516;SDS011;30223;17.182;-96.766;2023-03-13T04:29:39;11.38;;;5.55;;
44516;SDS011;30223;17.182;-96.766;2023-03-13T04:32:05;10.32;;;5.70;;
44516;SDS011;30223;17.182;-96.766;2023-03-13T04:34:32;9.07;;;5.35;;
44516;SDS011;30223;17.182;-96.766;2023-03-13T04:36:59;9.23;;;5.78;;
44516;SDS011;30223;17.182;-96.766;2023-03-13T04:39:26;8.27;;;6.07;;
44516;SDS011;30223;17.182;-96.766;2023-03-13T04:41:53;7.68;;;5.10;;
44516;SDS011;30223;17.182;-96.766;2023-03-13T04:44:21;6.15;;;5.15;;
44516;SDS011;30223;17.182;-96.766;2023-03-13T04:46:48;9.07;;;7.82;;
44516;SDS011;30223;17.182;-96.766;2023-03-13T04:49:14;7.78;;;7.03;;
44516;SDS011;30223;17.182;-96.766;2023-03-13T04:51:42;7.40;;;6.32;;
44516;SDS011;30223;17.182;-96.766;2023-03-13T04:54:09;5.63;;;5.18;;
44516;SDS011;30223;17.182;-96.766;2023-03-13T04:56:36;8.18;;;5.35;;
44516;SDS011;30223;17.182;-96.766;2023-03-13T04:59:03;6.82;;;4.88;;
44516;SDS011;30223;17.182;-96.766;2023-03-13T05:01:30;7.47;;;4.97;;
44516;SDS011;30223;17.182;-96.766;2023-03-13T05:03:57;5.18;;;3.88;;
44516;SDS011;30223;17.182;-96.766;2023-03-13T05:06:23;7.90;;;4.90;;
44516;SDS011;30223;17.182;-96.766;2023-03-13T05:08:50;5.68;;;3.92;;
44516;SDS011;30223;17.182;-96.766;2023-03-13T05:11:16;4.47;;;4.07;;
44516;SDS011;30223;17.182;-96.766;2023-03-13T05:13:43;3.60;;;3.20;;
44516;SDS011;30223;17.182;-96.766;2023-03-13T05:16:10;5.20;;;3.38;;
44516;SDS011;30223;17.182;-96.766;2023-03-13T05:18:37;4.70;;;3.40;;
44516;SDS011;30223;17.182;-96.766;2023-03-13T05:21:04;4.97;;;3.45;;
44516;SDS011;30223;17.182;-96.766;2023-03-13T05:23:31;5.03;;;3.83;;
44516;SDS011;30223;17.182;-96.766;2023-03-13T05:25:58;3.85;;;3.33;;
44516;SDS011;30223;17.182;-96.766;2023-03-13T05:28:25;5.15;;;4.38;;
44516;SDS011;30223;17.182;-96.766;2023-03-13T05:30:52;6.88;;;4.30;;
44516;SDS011;30223;17.182;-96.766;2023-03-13T05:33:19;12.00;;;4.78;;
44516;SDS011;30223;17.182;-96.766;2023-03-13T05:35:45;9.07;;;3.65;;
44516;SDS011;30223;17.182;-96.766;2023-03-13T05:38:12;5.55;;;4.07;;
44516;SDS011;30223;17.182;-96.766;2023-03-13T05:40:39;5.70;;;4.07;;
44516;SDS011;30223;17.182;-96.766;2023-03-13T05:43:06;6.65;;;3.70;;
44516;SDS011;30223;17.182;-96.766;2023-03-13T05:45:32;10.48;;;4.45;;
44516;SDS011;30223;17.182;-96.766;2023-03-13T05:47:59;6.60;;;3.15;;
44516;SDS011;30223;17.182;-96.766;2023-03-13T05:50:26;5.45;;;3.80;;
44516;SDS011;30223;17.182;-96.766;2023-03-13T05:52:53;6.03;;;3.65;;
44516;SDS011;30223;17.182;-96.766;2023-03-13T05:55:19;6.10;;;4.63;;
44516;SDS011;30223;17.182;-96.766;2023-03-13T05:57:46;7.55;;;3.40;;
44516;SDS011;30223;17.182;-96.766;2023-03-13T06:00:14;5.10;;;3.72;;
44516;SDS011;30223;17.182;-96.766;2023-03-13T06:02:42;7.28;;;3.65;;
44516;SDS011;30223;17.182;-96.766;2023-03-13T06:05:09;5.38;;;3.90;;
44516;SDS011;30223;17.182;-96.766;2023-03-13T06:07:36;5.65;;;3.35;;
44516;SDS011;30223;17.182;-96.766;2023-03-13T06:10:03;3.90;;;3.05;;
44516;SDS011;30223;17.182;-96.766;2023-03-13T06:12:30;8.18;;;3.55;;
44516;SDS011;30223;17.182;-96.766;2023-03-13T06:14:57;4.63;;;3.42;;
44516;SDS011;30223;17.182;-96.766;2023-03-13T06:17:23;7.75;;;3.55;;
44516;SDS011;30223;17.182;-96.766;2023-03-13T06:19:50;4.07;;;3.78;;
44516;SDS011;30223;17.182;-96.766;2023-03-13T06:22:17;5.60;;;3.00;;
44516;SDS011;30223;17.182;-96.766;2023-03-13T06:24:43;4.70;;;2.72;;
44516;SDS011;30223;17.182;-96.766;2023-03-13T06:27:13;4.25;;;3.22;;
44516;SDS011;30223;17.182;-96.766;2023-03-13T06:29:40;4.43;;;3.13;;
44516;SDS011;30223;17.182;-96.766;2023-03-13T06:32:07;4.30;;;2.70;;
44516;SDS011;30223;17.182;-96.766;2023-03-13T06:34:33;4.80;;;2.80;;
44516;SDS011;30223;17.182;-96.766;2023-03-13T06:37:00;5.22;;;3.05;;
44516;SDS011;30223;17.182;-96.766;2023-03-13T06:39:27;9.85;;;3.10;;
44516;SDS011;30223;17.182;-96.766;2023-03-13T06:41:56;3.05;;;2.60;;
44516;SDS011;30223;17.182;-96.766;2023-03-13T06:44:23;4.30;;;2.70;;
44516;SDS011;30223;17.182;-96.766;2023-03-13T06:46:50;5.10;;;3.95;;
44516;SDS011;30223;17.182;-96.766;2023-03-13T06:49:16;3.25;;;2.40;;
44516;SDS011;30223;17.182;-96.766;2023-03-13T06:51:43;5.03;;;2.78;;
44516;SDS011;30223;17.182;-96.766;2023-03-13T06:54:09;5.15;;;2.72;;
44516;SDS011;30223;17.182;-96.766;2023-03-13T06:56:36;5.97;;;3.35;;
44516;SDS011;30223;17.182;-96.766;2023-03-13T06:59:03;3.63;;;2.97;;
44516;SDS011;30223;17.182;-96.766;2023-03-13T07:01:29;2.90;;;2.45;;
44516;SDS011;30223;17.182;-96.766;2023-03-13T07:03:58;4.28;;;2.85;;
44516;SDS011;30223;17.182;-96.766;2023-03-13T07:06:25;8.93;;;2.97;;
44516;SDS011;30223;17.182;-96.766;2023-03-13T07:08:52;3.40;;;3.10;;
44516;SDS011;30223;17.182;-96.766;2023-03-13T07:11:19;4.10;;;2.55;;
44516;SDS011;30223;17.182;-96.766;2023-03-13T07:13:45;5.30;;;3.10;;
44516;SDS011;30223;17.182;-96.766;2023-03-13T07:16:12;4.07;;;3.42;;
44516;SDS011;30223;17.182;-96.766;2023-03-13T07:18:39;4.85;;;3.13;;
44516;SDS011;30223;17.182;-96.766;2023-03-13T07:21:06;4.80;;;2.72;;
44516;SDS011;30223;17.182;-96.766;2023-03-13T07:23:34;4.15;;;3.10;;
44516;SDS011;30223;17.182;-96.766;2023-03-13T07:26:02;3.03;;;2.63;;
44516;SDS011;30223;17.182;-96.766;2023-03-13T07:28:31;3.75;;;2.92;;
44516;SDS011;30223;17.182;-96.766;2023-03-13T07:33:32;6.85;;;3.70;;
44516;SDS011;30223;17.182;-96.766;2023-03-13T07:36:00;3.83;;;2.75;;
44516;SDS011;30223;17.182;-96.766;2023-03-13T07:38:26;3.83;;;2.72;;
44516;SDS011;30223;17.182;-96.766;2023-03-13T07:40:54;4.13;;;2.63;;
44516;SDS011;30223;17.182;-96.766;2023-03-13T07:43:22;3.25;;;2.25;;
44516;SDS011;30223;17.182;-96.766;2023-03-13T07:46:08;4.18;;;2.70;;
44516;SDS011;30223;17.182;-96.766;2023-03-13T07:48:39;4.32;;;3.15;;
44516;SDS011;30223;17.182;-96.766;2023-03-13T07:51:09;4.93;;;3.43;;
44516;SDS011;30223;17.182;-96.766;2023-03-13T07:53:38;3.08;;;2.63;;
44516;SDS011;30223;17.182;-96.766;2023-03-13T07:56:05;5.57;;;3.05;;
44516;SDS011;30223;17.182;-96.766;2023-03-13T07:58:36;3.17;;;2.47;;
44516;SDS011;30223;17.182;-96.766;2023-03-13T08:01:11;4.68;;;2.65;;
44516;SDS011;30223;17.182;-96.766;2023-03-13T08:03:46;3.55;;;2.63;;
44516;SDS011;30223;17.182;-96.766;2023-03-13T08:06:16;3.80;;;2.90;;
44516;SDS011;30223;17.182;-96.766;2023-03-13T08:11:12;3.30;;;2.40;;
44516;SDS011;30223;17.182;-96.766;2023-03-13T08:13:41;4.80;;;2.72;;
44516;SDS011;30223;17.182;-96.766;2023-03-13T08:16:08;3.83;;;3.10;;
44516;SDS011;30223;17.182;-96.766;2023-03-13T08:18:38;3.60;;;2.38;;
44516;SDS011;30223;17.182;-96.766;2023-03-13T08:21:07;4.60;;;3.10;;
44516;SDS011;30223;17.182;-96.766;2023-03-13T08:23:45;3.63;;;2.50;;
44516;SDS011;30223;17.182;-96.766;2023-03-13T08:26:16;3.95;;;2.25;;
44516;SDS011;30223;17.182;-96.766;2023-03-13T08:28:44;4.88;;;2.58;;
44516;SDS011;30223;17.182;-96.766;2023-03-13T08:31:13;3.67;;;2.93;;
44516;SDS011;30223;17.182;-96.766;2023-03-13T08:33:47;7.25;;;2.50;;
44516;SDS011;30223;17.182;-96.766;2023-03-13T08:36:15;3.42;;;2.55;;
44516;SDS011;30223;17.182;-96.766;2023-03-13T08:38:44;3.63;;;3.17;;
44516;SDS011;30223;17.182;-96.766;2023-03-13T08:41:12;4.18;;;2.55;;
44516;SDS011;30223;17.182;-96.766;2023-03-13T08:43:40;3.20;;;2.85;;
44516;SDS011;30223;17.182;-96.766;2023-03-13T08:46:07;3.60;;;2.72;;
44516;SDS011;30223;17.182;-96.766;2023-03-13T08:48:34;3.38;;;2.28;;
44516;SDS011;30223;17.182;-96.766;2023-03-13T08:51:04;3.72;;;2.28;;
44516;SDS011;30223;17.182;-96.766;2023-03-13T08:53:31;4.57;;;2.72;;
44516;SDS011;30223;17.182;-96.766;2023-03-13T08:55:59;3.80;;;2.70;;
44516;SDS011;30223;17.182;-96.766;2023-03-13T08:58:29;3.22;;;2.25;;
44516;SDS011;30223;17.182;-96.766;2023-03-13T09:01:02;4.43;;;2.75;;
44516;SDS011;30223;17.182;-96.766;2023-03-13T09:03:30;3.80;;;2.38;;
44516;SDS011;30223;17.182;-96.766;2023-03-13T09:05:57;3.88;;;2.47;;
44516;SDS011;30223;17.182;-96.766;2023-03-13T09:08:25;4.38;;;2.80;;
44516;SDS011;30223;17.182;-96.766;2023-03-13T09:11:00;2.83;;;2.53;;
44516;SDS011;30223;17.182;-96.766;2023-03-13T09:13:32;5.73;;;2.67;;
44516;SDS011;30223;17.182;-96.766;2023-03-13T09:16:01;3.75;;;2.58;;
44516;SDS011;30223;17.182;-96.766;2023-03-13T09:18:32;4.03;;;2.90;;
44516;SDS011;30223;17.182;-96.766;2023-03-13T09:20:59;4.30;;;2.80;;
44516;SDS011;30223;17.182;-96.766;2023-03-13T09:23:26;3.85;;;2.67;;
44516;SDS011;30223;17.182;-96.766;2023-03-13T09:25:53;3.38;;;2.78;;
44516;SDS011;30223;17.182;-96.766;2023-03-13T09:28:22;5.15;;;2.35;;
44516;SDS011;30223;17.182;-96.766;2023-03-13T09:30:50;4.47;;;3.22;;
44516;SDS011;30223;17.182;-96.766;2023-03-13T09:33:17;5.93;;;2.67;;
44516;SDS011;30223;17.182;-96.766;2023-03-13T09:35:45;2.60;;;2.13;;
44516;SDS011;30223;17.182;-96.766;2023-03-13T09:38:19;3.40;;;3.03;;
44516;SDS011;30223;17.182;-96.766;2023-03-13T09:40:48;3.70;;;2.53;;
44516;SDS011;30223;17.182;-96.766;2023-03-13T09:46:01;3.60;;;2.63;;
44516;SDS011;30223;17.182;-96.766;2023-03-13T09:48:40;3.33;;;2.38;;
44516;SDS011;30223;17.182;-96.766;2023-03-13T09:56:55;3.80;;;2.28;;
44516;SDS011;30223;17.182;-96.766;2023-03-13T09:59:44;3.70;;;2.55;;
44516;SDS011;30223;17.182;-96.766;2023-03-13T10:02:37;4.72;;;2.88;;
44516;SDS011;30223;17.182;-96.766;2023-03-13T10:05:07;3.40;;;2.97;;
44516;SDS011;30223;17.182;-96.766;2023-03-13T10:07:41;4.05;;;2.83;;
44516;SDS011;30223;17.182;-96.766;2023-03-13T10:10:12;3.75;;;2.55;;
44516;SDS011;30223;17.182;-96.766;2023-03-13T10:12:51;4.28;;;2.88;;
44516;SDS011;30223;17.182;-96.766;2023-03-13T10:15:36;3.95;;;2.42;;
44516;SDS011;30223;17.182;-96.766;2023-03-13T10:18:13;3.60;;;2.47;;
44516;SDS011;30223;17.182;-96.766;2023-03-13T10:20:47;3.33;;;2.35;;
44516;SDS011;30223;17.182;-96.766;2023-03-13T10:23:20;3.92;;;3.05;;
44516;SDS011;30223;17.182;-96.766;2023-03-13T10:26:49;4.30;;;2.95;;
44516;SDS011;30223;17.182;-96.766;2023-03-13T10:29:19;3.50;;;2.83;;
44516;SDS011;30223;17.182;-96.766;2023-03-13T10:31:52;4.28;;;2.40;;
44516;SDS011;30223;17.182;-96.766;2023-03-13T10:34:26;3.30;;;2.95;;
44516;SDS011;30223;17.182;-96.766;2023-03-13T10:36:58;4.30;;;2.47;;
44516;SDS011;30223;17.182;-96.766;2023-03-13T10:39:27;2.97;;;2.63;;
44516;SDS011;30223;17.182;-96.766;2023-03-13T10:41:58;2.90;;;2.42;;
44516;SDS011;30223;17.182;-96.766;2023-03-13T10:44:35;4.10;;;2.45;;
44516;SDS011;30223;17.182;-96.766;2023-03-13T10:47:02;5.60;;;3.58;;
44516;SDS011;30223;17.182;-96.766;2023-03-13T10:49:29;4.43;;;3.03;;
44516;SDS011;30223;17.182;-96.766;2023-03-13T10:51:58;7.22;;;3.40;;
44516;SDS011;30223;17.182;-96.766;2023-03-13T10:54:32;3.33;;;2.88;;
44516;SDS011;30223;17.182;-96.766;2023-03-13T10:57:09;4.35;;;2.75;;
44516;SDS011;30223;17.182;-96.766;2023-03-13T10:59:59;3.58;;;2.60;;
44516;SDS011;30223;17.182;-96.766;2023-03-13T11:02:46;5.43;;;2.83;;
44516;SDS011;30223;17.182;-96.766;2023-03-13T11:07:49;4.65;;;2.83;;
44516;SDS011;30223;17.182;-96.766;2023-03-13T11:10:19;3.40;;;2.33;;
44516;SDS011;30223;17.182;-96.766;2023-03-13T11:12:51;4.03;;;3.33;;
44516;SDS011;30223;17.182;-96.766;2023-03-13T11:17:58;2.85;;;2.15;;
44516;SDS011;30223;17.182;-96.766;2023-03-13T11:20:47;6.32;;;2.85;;
44516;SDS011;30223;17.182;-96.766;2023-03-13T11:23:18;2.42;;;2.10;;
44516;SDS011;30223;17.182;-96.766;2023-03-13T11:28:30;3.90;;;2.33;;
44516;SDS011;30223;17.182;-96.766;2023-03-13T11:34:23;3.53;;;2.63;;
44516;SDS011;30223;17.182;-96.766;2023-03-13T11:37:01;5.22;;;3.20;;
44516;SDS011;30223;17.182;-96.766;2023-03-13T11:56:27;6.07;;;3.55;;
44516;SDS011;30223;17.182;-96.766;2023-03-13T12:01:36;4.65;;;2.80;;
44516;SDS011;30223;17.182;-96.766;2023-03-13T12:04:12;4.25;;;3.08;;
44516;SDS011;30223;17.182;-96.766;2023-03-13T12:06:57;3.17;;;2.22;;
44516;SDS011;30223;17.182;-96.766;2023-03-13T12:09:40;4.13;;;2.83;;
44516;SDS011;30223;17.182;-96.766;2023-03-13T12:13:03;3.33;;;2.60;;
44516;SDS011;30223;17.182;-96.766;2023-03-13T12:15:22;5.25;;;3.40;;
44516;SDS011;30223;17.182;-96.766;2023-03-13T12:18:04;6.00;;;2.50;;
44516;SDS011;30223;17.182;-96.766;2023-03-13T12:20:41;3.25;;;2.63;;
44516;SDS011;30223;17.182;-96.766;2023-03-13T12:23:18;3.83;;;3.42;;
44516;SDS011;30223;17.182;-96.766;2023-03-13T12:25:56;3.38;;;2.50;;
44516;SDS011;30223;17.182;-96.766;2023-03-13T12:31:12;3.83;;;3.38;;
44516;SDS011;30223;17.182;-96.766;2023-03-13T12:39:51;7.05;;;2.92;;
44516;SDS011;30223;17.182;-96.766;2023-03-13T12:42:50;2.90;;;2.28;;
44516;SDS011;30223;17.182;-96.766;2023-03-13T12:45:18;3.63;;;2.80;;
44516;SDS011;30223;17.182;-96.766;2023-03-13T12:59:33;4.18;;;3.17;;
44516;SDS011;30223;17.182;-96.766;2023-03-13T13:01:33;5.50;;;3.40;;
44516;SDS011;30223;17.182;-96.766;2023-03-13T13:04:10;4.55;;;3.33;;
44516;SDS011;30223;17.182;-96.766;2023-03-13T13:06:49;4.47;;;2.47;;
44516;SDS011;30223;17.182;-96.766;2023-03-13T13:09:22;7.20;;;3.65;;
44516;SDS011;30223;17.182;-96.766;2023-03-13T13:12:22;4.47;;;2.97;;
44516;SDS011;30223;17.182;-96.766;2023-03-13T13:17:22;3.60;;;3.25;;
44516;SDS011;30223;17.182;-96.766;2023-03-13T13:19:49;6.50;;;3.38;;
44516;SDS011;30223;17.182;-96.766;2023-03-13T13:25:24;4.65;;;3.03;;
44516;SDS011;30223;17.182;-96.766;2023-03-13T13:27:50;3.53;;;2.42;;
44516;SDS011;30223;17.182;-96.766;2023-03-13T13:35:26;3.60;;;3.17;;
44516;SDS011;30223;17.182;-96.766;2023-03-13T13:53:58;4.00;;;2.90;;
44516;SDS011;30223;17.182;-96.766;2023-03-13T13:59:01;5.45;;;2.70;;
44516;SDS011;30223;17.182;-96.766;2023-03-13T14:01:50;5.80;;;2.70;;
44516;SDS011;30223;17.182;-96.766;2023-03-13T14:04:37;4.65;;;3.20;;
44516;SDS011;30223;17.182;-96.766;2023-03-13T14:07:06;5.85;;;2.88;;
44516;SDS011;30223;17.182;-96.766;2023-03-13T14:09:51;4.53;;;3.53;;
44516;SDS011;30223;17.182;-96.766;2023-03-13T14:12:28;8.13;;;3.20;;
44516;SDS011;30223;17.182;-96.766;2023-03-13T14:15:08;7.10;;;2.75;;
44516;SDS011;30223;17.182;-96.766;2023-03-13T14:17:44;3.33;;;2.60;;
44516;SDS011;30223;17.182;-96.766;2023-03-13T14:20:26;6.32;;;3.35;;
44516;SDS011;30223;17.182;-96.766;2023-03-13T14:22:53;3.97;;;3.25;;
44516;SDS011;30223;17.182;-96.766;2023-03-13T14:25:22;3.53;;;2.78;;
44516;SDS011;30223;17.182;-96.766;2023-03-13T14:27:50;6.55;;;3.05;;
44516;SDS011;30223;17.182;-96.766;2023-03-13T14:30:18;6.28;;;3.10;;
44516;SDS011;30223;17.182;-96.766;2023-03-13T14:32:46;4.15;;;3.13;;
44516;SDS011;30223;17.182;-96.766;2023-03-13T14:35:14;5.32;;;2.95;;
44516;SDS011;30223;17.182;-96.766;2023-03-13T14:37:50;4.13;;;2.58;;
44516;SDS011;30223;17.182;-96.766;2023-03-13T14:40:26;3.05;;;2.55;;
44516;SDS011;30223;17.182;-96.766;2023-03-13T14:45:29;3.88;;;2.33;;
44516;SDS011;30223;17.182;-96.766;2023-03-13T14:48:10;4.20;;;2.60;;
44516;SDS011;30223;17.182;-96.766;2023-03-13T14:50:39;5.88;;;3.03;;
44516;SDS011;30223;17.182;-96.766;2023-03-13T14:53:13;4.15;;;3.22;;
44516;SDS011;30223;17.182;-96.766;2023-03-13T14:55:44;7.28;;;3.72;;
44516;SDS011;30223;17.182;-96.766;2023-03-13T15:00:52;5.43;;;3.05;;
44516;SDS011;30223;17.182;-96.766;2023-03-13T15:03:20;4.90;;;3.40;;
44516;SDS011;30223;17.182;-96.766;2023-03-13T15:06:02;4.43;;;3.47;;
44516;SDS011;30223;17.182;-96.766;2023-03-13T15:08:34;3.80;;;3.05;;
44516;SDS011;30223;17.182;-96.766;2023-03-13T15:13:42;5.45;;;2.92;;
44516;SDS011;30223;17.182;-96.766;2023-03-13T15:16:15;4.63;;;3.15;;
44516;SDS011;30223;17.182;-96.766;2023-03-13T15:18:44;4.40;;;2.97;;
44516;SDS011;30223;17.182;-96.766;2023-03-13T15:23:39;8.52;;;3.10;;
44516;SDS011;30223;17.182;-96.766;2023-03-13T15:26:06;6.43;;;2.90;;
44516;SDS011;30223;17.182;-96.766;2023-03-13T15:28:33;5.68;;;3.13;;
44516;SDS011;30223;17.182;-96.766;2023-03-13T15:31:00;4.40;;;2.88;;
44516;SDS011;30223;17.182;-96.766;2023-03-13T15:33:27;4.95;;;3.28;;
44516;SDS011;30223;17.182;-96.766;2023-03-13T15:35:55;4.38;;;3.15;;
44516;SDS011;30223;17.182;-96.766;2023-03-13T15:38:23;6.65;;;3.33;;
44516;SDS011;30223;17.182;-96.766;2023-03-13T15:40:51;5.35;;;3.70;;
44516;SDS011;30223;17.182;-96.766;2023-03-13T15:43:19;3.20;;;2.55;;
44516;SDS011;30223;17.182;-96.766;2023-03-13T15:45:47;4.25;;;2.97;;
44516;SDS011;30223;17.182;-96.766;2023-03-13T15:50:52;4.72;;;2.78;;
44516;SDS011;30223;17.182;-96.766;2023-03-13T15:53:21;6.70;;;3.03;;
44516;SDS011;30223;17.182;-96.766;2023-03-13T15:55:53;4.57;;;3.28;;
44516;SDS011;30223;17.182;-96.766;2023-03-13T15:58:21;4.33;;;2.77;;
44516;SDS011;30223;17.182;-96.766;2023-03-13T16:00:48;5.13;;;2.80;;
44516;SDS011;30223;17.182;-96.766;2023-03-13T16:03:16;7.10;;;3.55;;
44516;SDS011;30223;17.182;-96.766;2023-03-13T16:08:15;4.35;;;2.90;;
44516;SDS011;30223;17.182;-96.766;2023-03-13T16:10:46;6.75;;;2.97;;
44516;SDS011;30223;17.182;-96.766;2023-03-13T16:13:13;3.47;;;2.80;;
44516;SDS011;30223;17.182;-96.766;2023-03-13T16:15:40;5.68;;;3.10;;
44516;SDS011;30223;17.182;-96.766;2023-03-13T16:18:25;5.15;;;3.33;;
44516;SDS011;30223;17.182;-96.766;2023-03-13T16:20:52;4.40;;;3.78;;
44516;SDS011;30223;17.182;-96.766;2023-03-13T16:23:19;6.72;;;3.20;;
44516;SDS011;30223;17.182;-96.766;2023-03-13T16:25:46;5.05;;;3.22;;
44516;SDS011;30223;17.182;-96.766;2023-03-13T16:28:13;3.45;;;2.72;;
44516;SDS011;30223;17.182;-96.766;2023-03-13T16:30:41;6.63;;;4.07;;
44516;SDS011;30223;17.182;-96.766;2023-03-13T16:33:08;3.20;;;2.85;;
44516;SDS011;30223;17.182;-96.766;2023-03-13T16:35:35;3.50;;;2.40;;
44516;SDS011;30223;17.182;-96.766;2023-03-13T16:38:02;4.25;;;3.28;;
44516;SDS011;30223;17.182;-96.766;2023-03-13T16:40:32;7.22;;;3.13;;
44516;SDS011;30223;17.182;-96.766;2023-03-13T16:42:59;3.40;;;2.80;;